createdAt,value
2023-03-03T00:00:12.588Z,11.60
2023-03-03T00:00:33.637Z,11.20
2023-03-03T00:00:54.709Z,11.20
2023-03-03T00:01:15.822Z,11.10
2023-03-03T00:01:36.892Z,11.60
2023-03-03T00:01:58.030Z,12.40
2023-03-03T00:02:19.180Z,11.90
2023-03-03T00:02:40.334Z,12.30
2023-03-03T00:03:01.434Z,12.90
2023-03-03T00:03:22.698Z,12.50
2023-03-03T00:03:43.805Z,12.60
2023-03-03T00:04:04.848Z,12.00
2023-03-03T00:04:25.926Z,11.70
2023-03-03T00:04:47.049Z,11.40
2023-03-03T00:05:08.105Z,11.80
2023-03-03T00:05:29.143Z,11.60
2023-03-03T00:05:50.244Z,12.10
2023-03-03T00:06:11.268Z,11.80
2023-03-03T00:06:32.392Z,11.40
2023-03-03T00:06:53.458Z,12.20
2023-03-03T00:07:14.523Z,12.80
2023-03-03T00:07:35.632Z,12.10
2023-03-03T00:07:56.675Z,12.10
2023-03-03T00:08:17.767Z,11.80
2023-03-03T00:08:38.840Z,12.10
2023-03-03T00:08:59.893Z,12.20
2023-03-03T00:09:20.938Z,11.80
2023-03-03T00:09:42.004Z,12.90
2023-03-03T00:10:03.068Z,13.30
2023-03-03T00:10:24.143Z,12.70
2023-03-03T00:10:45.199Z,12.30
2023-03-03T00:11:06.254Z,12.70
2023-03-03T00:11:27.307Z,12.40
2023-03-03T00:11:48.394Z,13.00
2023-03-03T00:12:09.481Z,12.90
2023-03-03T00:12:30.517Z,12.40
2023-03-03T00:12:51.579Z,12.50
2023-03-03T00:13:12.670Z,12.00
2023-03-03T00:13:33.724Z,13.00
2023-03-03T00:13:54.831Z,13.60
2023-03-03T00:14:15.873Z,13.40
2023-03-03T00:14:36.911Z,12.60
2023-03-03T00:14:57.977Z,12.90
2023-03-03T00:15:19.112Z,12.40
2023-03-03T00:15:40.184Z,12.30
2023-03-03T00:16:01.262Z,12.30
2023-03-03T00:16:22.351Z,12.50
2023-03-03T00:16:43.414Z,13.00
2023-03-03T00:17:04.457Z,13.10
2023-03-03T00:17:25.557Z,12.40
2023-03-03T00:17:46.627Z,12.70
2023-03-03T00:18:07.679Z,12.60
2023-03-03T00:18:28.766Z,12.80
2023-03-03T00:18:49.844Z,13.60
2023-03-03T00:19:11.072Z,13.90
2023-03-03T00:19:32.168Z,13.90
2023-03-03T00:19:53.276Z,13.70
2023-03-03T00:20:14.338Z,14.00
2023-03-03T00:20:35.390Z,14.60
2023-03-03T00:20:56.446Z,14.80
2023-03-03T00:21:17.498Z,13.80
2023-03-03T00:21:38.553Z,13.90
2023-03-03T00:21:59.618Z,13.10
2023-03-03T00:22:20.713Z,14.60
2023-03-03T00:22:41.802Z,14.80
2023-03-03T00:23:02.845Z,14.00
2023-03-03T00:23:23.901Z,13.60
2023-03-03T00:23:44.934Z,13.80
2023-03-03T00:24:05.993Z,14.40
2023-03-03T00:24:27.082Z,14.70
2023-03-03T00:24:48.140Z,13.40
2023-03-03T00:25:09.192Z,13.40
2023-03-03T00:25:30.304Z,13.70
2023-03-03T00:25:51.366Z,14.20
2023-03-03T00:26:12.457Z,13.80
2023-03-03T00:26:33.499Z,13.80
2023-03-03T00:26:54.564Z,13.80
2023-03-03T00:27:15.621Z,14.00
2023-03-03T00:27:36.693Z,14.10
2023-03-03T00:27:57.749Z,14.00
2023-03-03T00:28:18.851Z,14.00
2023-03-03T00:28:39.913Z,13.60
2023-03-03T00:29:00.956Z,13.60
2023-03-03T00:29:22.026Z,13.80
2023-03-03T00:29:43.111Z,14.10
2023-03-03T00:30:04.206Z,14.30
2023-03-03T00:30:25.260Z,14.40
2023-03-03T00:30:46.302Z,14.20
2023-03-03T00:31:07.468Z,14.00
2023-03-03T00:31:28.543Z,13.60
2023-03-03T00:31:49.605Z,14.00
2023-03-03T00:32:10.717Z,14.20
2023-03-03T00:32:31.797Z,14.20
2023-03-03T00:32:52.887Z,14.60
2023-03-03T00:33:13.953Z,13.70
2023-03-03T00:33:34.997Z,14.00
2023-03-03T00:33:56.066Z,14.30
2023-03-03T00:34:17.211Z,13.30
2023-03-03T00:34:38.246Z,13.20
2023-03-03T00:34:59.475Z,13.50
2023-03-03T00:35:20.666Z,14.00
2023-03-03T00:35:41.855Z,14.10
2023-03-03T00:36:03.024Z,13.60
2023-03-03T00:36:24.079Z,13.50
2023-03-03T00:36:45.106Z,13.30
2023-03-03T00:37:06.222Z,13.80
2023-03-03T00:37:27.317Z,13.50
2023-03-03T00:37:48.346Z,13.40
2023-03-03T00:38:09.394Z,13.90
2023-03-03T00:38:30.470Z,13.80
2023-03-03T00:38:51.515Z,13.60
2023-03-03T00:39:12.603Z,14.70
2023-03-03T00:39:33.643Z,14.30
2023-03-03T00:39:54.695Z,13.10
2023-03-03T00:40:15.935Z,13.90
2023-03-03T00:40:37.037Z,13.00
2023-03-03T00:40:58.099Z,13.30
2023-03-03T00:41:19.159Z,13.50
2023-03-03T00:41:40.264Z,13.20
2023-03-03T00:42:01.306Z,13.90
2023-03-03T00:42:22.366Z,14.20
2023-03-03T00:42:43.428Z,14.00
2023-03-03T00:43:04.486Z,14.00
2023-03-03T00:43:25.546Z,14.20
2023-03-03T00:43:46.625Z,13.30
2023-03-03T00:44:07.685Z,14.00
2023-03-03T00:44:28.736Z,14.20
2023-03-03T00:44:49.808Z,13.80
2023-03-03T00:45:10.890Z,13.40
2023-03-03T00:45:31.981Z,13.50
2023-03-03T00:45:53.085Z,13.30
2023-03-03T00:46:14.198Z,13.80
2023-03-03T00:46:35.322Z,14.20
2023-03-03T00:46:56.380Z,13.70
2023-03-03T00:47:17.432Z,13.90
2023-03-03T00:47:38.538Z,14.10
2023-03-03T00:47:59.587Z,14.10
2023-03-03T00:48:20.659Z,14.20
2023-03-03T00:48:41.701Z,13.50
2023-03-03T00:49:02.766Z,13.40
2023-03-03T00:49:23.821Z,14.10
2023-03-03T00:49:44.890Z,14.20
2023-03-03T00:50:06.014Z,13.30
2023-03-03T00:50:27.083Z,13.80
2023-03-03T00:50:48.136Z,14.30
2023-03-03T00:51:09.197Z,13.80
2023-03-03T00:51:30.295Z,14.00
2023-03-03T00:51:51.329Z,14.30
2023-03-03T00:52:12.366Z,13.70
2023-03-03T00:52:33.458Z,13.60
2023-03-03T00:52:54.501Z,13.40
2023-03-03T00:53:15.556Z,13.60
2023-03-03T00:53:36.639Z,12.90
2023-03-03T00:53:57.711Z,13.70
2023-03-03T00:54:18.761Z,15.00
2023-03-03T00:54:39.821Z,14.90
2023-03-03T00:55:00.888Z,14.10
2023-03-03T00:55:21.960Z,14.00
2023-03-03T00:55:43.007Z,13.80
2023-03-03T00:56:04.076Z,13.80
2023-03-03T00:56:25.152Z,13.60
2023-03-03T00:56:46.215Z,13.40
2023-03-03T00:57:07.266Z,14.20
2023-03-03T00:57:28.346Z,13.70
2023-03-03T00:57:49.390Z,13.70
2023-03-03T00:58:10.469Z,13.30
2023-03-03T00:58:31.520Z,13.20
2023-03-03T00:58:52.596Z,14.60
2023-03-03T00:59:13.675Z,14.60
2023-03-03T00:59:34.694Z,14.60
2023-03-03T00:59:55.786Z,14.80
2023-03-03T01:00:16.863Z,14.30
2023-03-03T01:00:37.897Z,14.30
2023-03-03T01:00:59.055Z,13.90
2023-03-03T01:01:20.357Z,13.60
2023-03-03T01:01:41.431Z,13.50
2023-03-03T01:02:02.466Z,13.90
2023-03-03T01:02:23.575Z,13.60
2023-03-03T01:02:44.686Z,13.80
2023-03-03T01:03:05.795Z,14.70
2023-03-03T01:03:26.867Z,14.10
2023-03-03T01:03:47.880Z,14.20
2023-03-03T01:04:08.944Z,14.10
2023-03-03T01:04:30.028Z,14.30
2023-03-03T01:04:51.143Z,15.00
2023-03-03T01:05:12.201Z,14.50
2023-03-03T01:05:33.273Z,14.20
2023-03-03T01:05:54.318Z,14.80
2023-03-03T01:06:15.441Z,15.10
2023-03-03T01:06:36.559Z,14.70
2023-03-03T01:06:57.618Z,15.10
2023-03-03T01:07:18.702Z,15.20
2023-03-03T01:07:39.761Z,15.10
2023-03-03T01:08:00.833Z,14.00
2023-03-03T01:08:21.878Z,14.30
2023-03-03T01:08:42.939Z,14.40
2023-03-03T01:09:04.002Z,14.20
2023-03-03T01:09:25.086Z,14.20
2023-03-03T01:09:46.126Z,14.30
2023-03-03T01:10:07.210Z,14.30
2023-03-03T01:10:28.252Z,14.40
2023-03-03T01:10:49.325Z,14.40
2023-03-03T01:11:10.380Z,14.70
2023-03-03T01:11:31.429Z,14.40
2023-03-03T01:11:52.518Z,14.80
2023-03-03T01:12:13.571Z,14.60
2023-03-03T01:12:34.626Z,15.00
2023-03-03T01:12:55.674Z,14.60
2023-03-03T01:13:16.724Z,14.20
2023-03-03T01:13:38.181Z,13.90
2023-03-03T01:13:59.282Z,14.10
2023-03-03T01:14:20.392Z,14.20
2023-03-03T01:14:41.443Z,14.70
2023-03-03T01:15:02.516Z,15.00
2023-03-03T01:15:23.549Z,14.70
2023-03-03T01:15:44.623Z,14.40
2023-03-03T01:16:05.716Z,14.60
2023-03-03T01:16:26.814Z,14.70
2023-03-03T01:16:47.869Z,14.70
2023-03-03T01:17:09.104Z,14.70
2023-03-03T01:17:30.141Z,14.80
2023-03-03T01:17:51.203Z,14.70
2023-03-03T01:18:12.286Z,14.20
2023-03-03T01:18:33.376Z,14.40
2023-03-03T01:18:54.446Z,14.60
2023-03-03T01:19:15.491Z,14.40
2023-03-03T01:19:36.595Z,13.90
2023-03-03T01:19:57.641Z,14.30
2023-03-03T01:20:18.729Z,15.10
2023-03-03T01:20:39.797Z,14.40
2023-03-03T01:21:00.833Z,14.80
2023-03-03T01:21:21.908Z,14.60
2023-03-03T01:21:42.984Z,13.90
2023-03-03T01:22:04.064Z,14.20
2023-03-03T01:22:25.284Z,14.80
2023-03-03T01:22:46.338Z,14.80
2023-03-03T01:23:07.534Z,14.90
2023-03-03T01:23:28.620Z,14.40
2023-03-03T01:23:49.725Z,14.10
2023-03-03T01:24:10.738Z,14.30
2023-03-03T01:24:31.822Z,14.40
2023-03-03T01:24:52.864Z,14.10
2023-03-03T01:25:13.950Z,14.40
2023-03-03T01:25:35.114Z,14.50
2023-03-03T01:25:56.187Z,14.80
2023-03-03T01:26:17.206Z,14.70
2023-03-03T01:26:38.286Z,14.10
2023-03-03T01:26:59.346Z,14.80
2023-03-03T01:27:20.430Z,15.50
2023-03-03T01:27:41.625Z,15.40
2023-03-03T01:28:02.666Z,15.20
2023-03-03T01:28:23.740Z,15.40
2023-03-03T01:28:44.829Z,15.60
2023-03-03T01:29:05.903Z,14.80
2023-03-03T01:29:26.969Z,14.80
2023-03-03T01:29:47.991Z,15.20
2023-03-03T01:30:09.050Z,16.70
2023-03-03T01:30:30.111Z,15.90
2023-03-03T01:30:51.161Z,15.70
2023-03-03T01:31:12.245Z,15.50
2023-03-03T01:31:33.336Z,15.40
2023-03-03T01:31:54.438Z,15.20
2023-03-03T01:32:15.583Z,15.30
2023-03-03T01:32:36.661Z,14.90
2023-03-03T01:32:57.738Z,14.90
2023-03-03T01:33:18.790Z,15.30
2023-03-03T01:33:39.862Z,14.70
2023-03-03T01:34:00.907Z,15.60
2023-03-03T01:34:21.946Z,15.60
2023-03-03T01:34:43.032Z,15.00
2023-03-03T01:35:04.076Z,15.20
2023-03-03T01:35:25.172Z,15.60
2023-03-03T01:35:46.296Z,15.90
2023-03-03T01:36:08.301Z,15.20
2023-03-03T01:36:29.343Z,15.70
2023-03-03T01:36:50.428Z,15.80
2023-03-03T01:37:11.478Z,15.10
2023-03-03T01:37:32.668Z,15.20
2023-03-03T01:37:53.709Z,15.10
2023-03-03T01:38:14.786Z,15.40
2023-03-03T01:38:35.834Z,15.70
2023-03-03T01:38:56.900Z,15.90
2023-03-03T01:39:17.947Z,15.30
2023-03-03T01:39:39.055Z,15.20
2023-03-03T01:40:00.160Z,14.90
2023-03-03T01:40:21.197Z,15.20
2023-03-03T01:40:42.242Z,15.70
2023-03-03T01:41:03.350Z,16.50
2023-03-03T01:41:24.392Z,16.20
2023-03-03T01:41:45.440Z,15.70
2023-03-03T01:42:06.517Z,15.70
2023-03-03T01:42:27.567Z,16.30
2023-03-03T01:42:48.614Z,15.90
2023-03-03T01:43:09.680Z,15.80
2023-03-03T01:43:30.906Z,15.80
2023-03-03T01:43:52.089Z,16.30
2023-03-03T01:44:13.119Z,16.60
2023-03-03T01:44:34.216Z,16.10
2023-03-03T01:44:55.268Z,16.10
2023-03-03T01:45:16.321Z,16.50
2023-03-03T01:45:37.394Z,16.10
2023-03-03T01:45:58.460Z,16.40
2023-03-03T01:46:19.548Z,16.90
2023-03-03T01:46:40.673Z,16.90
2023-03-03T01:47:01.742Z,16.50
2023-03-03T01:47:22.812Z,16.70
2023-03-03T01:47:43.889Z,16.10
2023-03-03T01:48:04.983Z,16.00
2023-03-03T01:48:26.025Z,15.50
2023-03-03T01:48:47.091Z,16.50
2023-03-03T01:49:08.148Z,16.40
2023-03-03T01:49:29.339Z,16.20
2023-03-03T01:49:50.369Z,16.10
2023-03-03T01:50:11.426Z,16.20
2023-03-03T01:50:32.496Z,16.20
2023-03-03T01:50:53.578Z,16.30
2023-03-03T01:51:14.621Z,16.50
2023-03-03T01:51:35.691Z,16.30
2023-03-03T01:51:56.799Z,16.70
2023-03-03T01:52:17.860Z,17.00
2023-03-03T01:52:38.939Z,15.50
2023-03-03T01:53:00.028Z,16.00
2023-03-03T01:53:21.075Z,16.00
2023-03-03T01:53:42.131Z,17.20
2023-03-03T01:54:03.232Z,16.90
2023-03-03T01:54:24.296Z,16.90
2023-03-03T01:54:45.362Z,17.00
2023-03-03T01:55:06.424Z,17.50
2023-03-03T01:55:27.499Z,16.90
2023-03-03T01:55:48.556Z,17.10
2023-03-03T01:56:09.645Z,16.40
2023-03-03T01:56:30.698Z,17.00
2023-03-03T01:56:51.769Z,16.80
2023-03-03T01:57:12.803Z,17.30
2023-03-03T01:57:33.880Z,16.70
2023-03-03T01:57:54.942Z,15.80
2023-03-03T01:58:16.006Z,16.20
2023-03-03T01:58:37.076Z,17.10
2023-03-03T01:58:58.135Z,17.00
2023-03-03T01:59:19.217Z,16.70
2023-03-03T01:59:40.315Z,16.80
2023-03-03T02:00:01.374Z,16.60
2023-03-03T02:00:22.428Z,16.60
2023-03-03T02:00:43.483Z,15.80
2023-03-03T02:01:04.552Z,16.20
2023-03-03T02:01:25.648Z,17.40
2023-03-03T02:01:46.730Z,17.10
2023-03-03T02:02:07.821Z,16.50
2023-03-03T02:02:28.933Z,15.60
2023-03-03T02:02:50.050Z,16.50
2023-03-03T02:03:11.203Z,17.30
2023-03-03T02:03:32.257Z,17.30
2023-03-03T02:03:53.309Z,17.00
2023-03-03T02:04:14.352Z,16.50
2023-03-03T02:04:35.479Z,17.50
2023-03-03T02:04:56.521Z,17.60
2023-03-03T02:05:17.587Z,17.50
2023-03-03T02:05:38.642Z,16.10
2023-03-03T02:05:59.726Z,16.70
2023-03-03T02:06:20.795Z,16.70
2023-03-03T02:06:41.842Z,17.00
2023-03-03T02:07:02.895Z,16.80
2023-03-03T02:07:23.966Z,16.50
2023-03-03T02:07:45.021Z,16.50
2023-03-03T02:08:06.095Z,16.60
2023-03-03T02:08:27.162Z,16.40
2023-03-03T02:08:48.205Z,16.30
2023-03-03T02:09:09.293Z,16.40
2023-03-03T02:09:30.373Z,17.30
2023-03-03T02:09:51.476Z,16.90
2023-03-03T02:10:12.534Z,17.60
2023-03-03T02:10:33.591Z,16.40
2023-03-03T02:10:54.638Z,17.00
2023-03-03T02:11:15.714Z,17.60
2023-03-03T02:11:36.816Z,16.70
2023-03-03T02:11:57.858Z,17.40
2023-03-03T02:12:18.919Z,17.10
2023-03-03T02:12:39.971Z,17.40
2023-03-03T02:13:01.057Z,18.10
2023-03-03T02:13:22.099Z,18.00
2023-03-03T02:13:43.172Z,17.50
2023-03-03T02:14:04.250Z,17.60
2023-03-03T02:14:25.303Z,18.10
2023-03-03T02:14:46.373Z,17.90
2023-03-03T02:15:07.450Z,17.10
2023-03-03T02:15:28.488Z,17.70
2023-03-03T02:15:49.622Z,17.40
2023-03-03T02:16:10.762Z,16.30
2023-03-03T02:16:31.895Z,17.80
2023-03-03T02:16:52.970Z,17.70
2023-03-03T02:17:14.049Z,17.50
2023-03-03T02:17:35.087Z,17.70
2023-03-03T02:17:56.154Z,17.80
2023-03-03T02:18:17.218Z,17.30
2023-03-03T02:18:38.286Z,17.70
2023-03-03T02:18:59.331Z,18.20
2023-03-03T02:19:20.401Z,17.30
2023-03-03T02:19:41.471Z,17.40
2023-03-03T02:20:02.521Z,17.50
2023-03-03T02:20:23.744Z,17.50
2023-03-03T02:20:44.806Z,17.50
2023-03-03T02:21:05.902Z,17.50
2023-03-03T02:21:26.938Z,17.80
2023-03-03T02:21:47.994Z,17.60
2023-03-03T02:22:09.059Z,17.20
2023-03-03T02:22:30.124Z,16.50
2023-03-03T02:22:51.193Z,17.60
2023-03-03T02:23:12.268Z,17.40
2023-03-03T02:23:33.335Z,17.30
2023-03-03T02:23:54.396Z,17.50
2023-03-03T02:24:15.447Z,17.00
2023-03-03T02:24:36.505Z,17.70
2023-03-03T02:24:57.577Z,17.50
2023-03-03T02:25:18.636Z,17.60
2023-03-03T02:25:39.854Z,17.40
2023-03-03T02:26:00.909Z,17.30
2023-03-03T02:26:21.990Z,17.40
2023-03-03T02:26:43.076Z,17.80
2023-03-03T02:27:04.106Z,18.50
2023-03-03T02:27:25.203Z,18.10
2023-03-03T02:27:46.281Z,17.80
2023-03-03T02:28:07.350Z,16.80
2023-03-03T02:28:28.425Z,18.00
2023-03-03T02:28:49.472Z,17.90
2023-03-03T02:29:10.550Z,18.30
2023-03-03T02:29:31.616Z,18.10
2023-03-03T02:29:52.690Z,17.80
2023-03-03T02:30:13.737Z,17.70
2023-03-03T02:30:34.794Z,18.00
2023-03-03T02:30:55.888Z,18.50
2023-03-03T02:31:16.967Z,17.80
2023-03-03T02:31:38.061Z,17.40
2023-03-03T02:31:59.218Z,18.30
2023-03-03T02:32:20.357Z,18.20
2023-03-03T02:32:41.520Z,18.20
2023-03-03T02:33:02.585Z,19.00
2023-03-03T02:33:23.664Z,18.90
2023-03-03T02:33:44.722Z,18.10
2023-03-03T02:34:05.801Z,17.50
2023-03-03T02:34:26.838Z,18.30
2023-03-03T02:34:47.896Z,18.00
2023-03-03T02:35:08.949Z,18.10
2023-03-03T02:35:30.172Z,18.10
2023-03-03T02:35:51.272Z,18.20
2023-03-03T02:36:12.574Z,17.80
2023-03-03T02:36:33.614Z,17.90
2023-03-03T02:36:54.700Z,18.00
2023-03-03T02:37:15.746Z,19.00
2023-03-03T02:37:36.805Z,19.50
2023-03-03T02:37:57.857Z,18.20
2023-03-03T02:38:18.962Z,18.70
2023-03-03T02:38:39.998Z,19.20
2023-03-03T02:39:01.057Z,18.80
2023-03-03T02:39:22.120Z,19.00
2023-03-03T02:39:43.174Z,19.40
2023-03-03T02:40:04.233Z,18.90
2023-03-03T02:40:25.283Z,19.00
2023-03-03T02:40:46.350Z,19.50
2023-03-03T02:41:07.400Z,19.90
2023-03-03T02:41:28.512Z,19.10
2023-03-03T02:41:49.585Z,18.50
2023-03-03T02:42:10.635Z,20.20
2023-03-03T02:42:31.672Z,18.80
2023-03-03T02:42:52.745Z,19.60
2023-03-03T02:43:13.818Z,19.60
2023-03-03T02:43:34.908Z,19.70
2023-03-03T02:43:55.965Z,19.90
2023-03-03T02:44:17.015Z,18.70
2023-03-03T02:44:38.103Z,18.70
2023-03-03T02:44:59.160Z,19.00
2023-03-03T02:45:20.315Z,19.90
2023-03-03T02:45:41.435Z,19.90
2023-03-03T02:46:02.517Z,19.20
2023-03-03T02:46:23.557Z,19.50
2023-03-03T02:46:44.656Z,19.40
2023-03-03T02:47:05.772Z,19.00
2023-03-03T02:47:26.807Z,19.30
2023-03-03T02:47:47.858Z,19.40
2023-03-03T02:48:08.939Z,20.80
2023-03-03T02:48:29.978Z,19.70
2023-03-03T02:48:51.042Z,19.50
2023-03-03T02:49:12.111Z,20.50
2023-03-03T02:49:33.198Z,19.60
2023-03-03T02:49:54.254Z,20.00
2023-03-03T02:50:15.315Z,19.50
2023-03-03T02:50:36.392Z,18.60
2023-03-03T02:50:57.454Z,19.70
2023-03-03T02:51:18.532Z,20.10
2023-03-03T02:51:39.602Z,19.60
2023-03-03T02:52:00.682Z,20.10
2023-03-03T02:52:21.745Z,20.70
2023-03-03T02:52:42.807Z,20.40
2023-03-03T02:53:03.858Z,20.10
2023-03-03T02:53:24.917Z,20.70
2023-03-03T02:53:45.969Z,20.80
2023-03-03T02:54:07.065Z,20.30
2023-03-03T02:54:28.111Z,20.30
2023-03-03T02:54:49.156Z,20.50
2023-03-03T02:55:10.271Z,20.80
2023-03-03T02:55:31.284Z,19.30
2023-03-03T02:55:52.350Z,19.80
2023-03-03T02:56:13.435Z,19.90
2023-03-03T02:56:34.522Z,20.80
2023-03-03T02:56:55.573Z,20.30
2023-03-03T02:57:16.634Z,20.00
2023-03-03T02:57:37.689Z,20.50
2023-03-03T02:57:58.758Z,19.80
2023-03-03T02:58:19.792Z,19.10
2023-03-03T02:58:40.866Z,19.80
2023-03-03T02:59:01.958Z,20.70
2023-03-03T02:59:22.974Z,21.70
2023-03-03T02:59:44.036Z,20.60
2023-03-03T03:00:05.352Z,20.60
2023-03-03T03:00:26.414Z,21.40
2023-03-03T03:00:47.489Z,21.30
2023-03-03T03:01:08.595Z,21.00
2023-03-03T03:01:29.648Z,20.80
2023-03-03T03:01:50.694Z,20.70
2023-03-03T03:02:11.768Z,21.30
2023-03-03T03:02:32.991Z,20.20
2023-03-03T03:02:54.057Z,20.30
2023-03-03T03:03:15.125Z,20.50
2023-03-03T03:03:36.212Z,20.40
2023-03-03T03:03:57.288Z,21.20
2023-03-03T03:04:18.368Z,21.40
2023-03-03T03:04:39.481Z,20.90
2023-03-03T03:05:00.598Z,21.30
2023-03-03T03:05:21.640Z,21.40
2023-03-03T03:05:42.737Z,21.70
2023-03-03T03:06:03.773Z,21.70
2023-03-03T03:06:24.926Z,21.70
2023-03-03T03:06:45.980Z,20.20
2023-03-03T03:07:07.030Z,20.50
2023-03-03T03:07:28.074Z,20.80
2023-03-03T03:07:49.149Z,21.50
2023-03-03T03:08:10.264Z,21.30
2023-03-03T03:08:31.315Z,21.10
2023-03-03T03:08:52.377Z,21.00
2023-03-03T03:09:13.490Z,20.80
2023-03-03T03:09:34.682Z,21.40
2023-03-03T03:09:55.735Z,21.60
2023-03-03T03:10:16.798Z,21.30
2023-03-03T03:10:37.880Z,21.40
2023-03-03T03:10:58.967Z,21.90
2023-03-03T03:11:20.053Z,21.40
2023-03-03T03:11:41.098Z,21.80
2023-03-03T03:12:02.222Z,22.40
2023-03-03T03:12:23.257Z,22.00
2023-03-03T03:12:44.303Z,21.90
2023-03-03T03:13:05.393Z,21.10
2023-03-03T03:13:26.453Z,20.60
2023-03-03T03:13:47.505Z,21.60
2023-03-03T03:14:08.590Z,21.50
2023-03-03T03:14:29.643Z,21.30
2023-03-03T03:14:50.764Z,21.80
2023-03-03T03:15:11.812Z,21.70
2023-03-03T03:15:32.882Z,21.70
2023-03-03T03:15:53.947Z,23.10
2023-03-03T03:16:15.045Z,21.90
2023-03-03T03:16:36.207Z,21.80
2023-03-03T03:16:57.384Z,22.20
2023-03-03T03:17:18.417Z,22.00
2023-03-03T03:17:39.508Z,21.90
2023-03-03T03:18:00.617Z,22.80
2023-03-03T03:18:21.704Z,23.10
2023-03-03T03:18:42.751Z,21.80
2023-03-03T03:19:03.803Z,22.10
2023-03-03T03:19:24.895Z,21.50
2023-03-03T03:19:45.972Z,21.60
2023-03-03T03:20:07.003Z,21.30
2023-03-03T03:20:28.081Z,22.60
2023-03-03T03:20:49.124Z,23.10
2023-03-03T03:21:10.188Z,21.90
2023-03-03T03:21:31.276Z,22.70
2023-03-03T03:21:52.342Z,22.80
2023-03-03T03:22:13.400Z,22.70
2023-03-03T03:22:34.466Z,22.90
2023-03-03T03:22:55.508Z,22.80
2023-03-03T03:23:16.578Z,22.50
2023-03-03T03:23:37.666Z,23.20
2023-03-03T03:23:58.713Z,23.30
2023-03-03T03:24:19.766Z,22.30
2023-03-03T03:24:40.851Z,22.50
2023-03-03T03:25:01.899Z,22.10
2023-03-03T03:25:22.950Z,21.80
2023-03-03T03:25:44.014Z,22.40
2023-03-03T03:26:05.064Z,21.90
2023-03-03T03:26:26.120Z,21.90
2023-03-03T03:26:47.184Z,22.10
2023-03-03T03:27:08.249Z,22.00
2023-03-03T03:27:29.305Z,22.90
2023-03-03T03:27:50.396Z,22.20
2023-03-03T03:28:11.428Z,22.70
2023-03-03T03:28:32.546Z,23.50
2023-03-03T03:28:53.769Z,22.60
2023-03-03T03:29:14.867Z,22.70
2023-03-03T03:29:35.898Z,22.00
2023-03-03T03:29:56.960Z,22.70
2023-03-03T03:30:17.994Z,22.30
2023-03-03T03:30:39.126Z,22.80
2023-03-03T03:31:00.257Z,22.80
2023-03-03T03:31:21.316Z,22.40
2023-03-03T03:31:42.397Z,22.80
2023-03-03T03:32:03.475Z,22.40
2023-03-03T03:32:24.546Z,23.80
2023-03-03T03:32:45.612Z,23.30
2023-03-03T03:33:06.667Z,22.70
2023-03-03T03:33:27.728Z,24.00
2023-03-03T03:33:48.793Z,23.00
2023-03-03T03:34:09.870Z,23.20
2023-03-03T03:34:30.923Z,22.70
2023-03-03T03:34:51.999Z,23.70
2023-03-03T03:35:13.058Z,23.30
2023-03-03T03:35:34.146Z,22.90
2023-03-03T03:35:55.258Z,22.50
2023-03-03T03:36:16.325Z,21.90
2023-03-03T03:36:37.377Z,22.70
2023-03-03T03:36:58.434Z,22.90
2023-03-03T03:37:19.518Z,22.90
2023-03-03T03:37:40.544Z,22.50
2023-03-03T03:38:01.642Z,24.10
2023-03-03T03:38:22.729Z,23.40
2023-03-03T03:38:43.795Z,24.20
2023-03-03T03:39:04.854Z,23.00
2023-03-03T03:39:25.924Z,22.10
2023-03-03T03:39:46.989Z,22.20
2023-03-03T03:40:08.052Z,21.90
2023-03-03T03:40:29.105Z,23.00
2023-03-03T03:40:50.189Z,23.20
2023-03-03T03:41:11.294Z,23.50
2023-03-03T03:41:32.345Z,23.20
2023-03-03T03:41:53.415Z,21.90
2023-03-03T03:42:14.544Z,23.00
2023-03-03T03:42:35.617Z,23.60
2023-03-03T03:42:56.659Z,24.00
2023-03-03T03:43:17.744Z,22.80
2023-03-03T03:43:38.819Z,23.80
2023-03-03T03:43:59.838Z,23.20
2023-03-03T03:44:20.926Z,22.90
2023-03-03T03:44:42.043Z,24.20
2023-03-03T03:45:03.132Z,22.50
2023-03-03T03:45:24.304Z,22.70
2023-03-03T03:45:45.403Z,23.00
2023-03-03T03:46:06.513Z,23.20
2023-03-03T03:46:27.591Z,23.70
2023-03-03T03:46:48.656Z,24.00
2023-03-03T03:47:09.709Z,23.60
2023-03-03T03:47:30.785Z,22.60
2023-03-03T03:47:51.840Z,23.00
2023-03-03T03:48:12.893Z,24.10
2023-03-03T03:48:33.946Z,24.20
2023-03-03T03:48:55.029Z,24.20
2023-03-03T03:49:16.097Z,24.20
2023-03-03T03:49:37.163Z,23.20
2023-03-03T03:49:58.261Z,23.30
2023-03-03T03:50:19.311Z,24.00
2023-03-03T03:50:40.383Z,23.70
2023-03-03T03:51:01.450Z,24.20
2023-03-03T03:51:22.544Z,24.20
2023-03-03T03:51:43.613Z,23.00
2023-03-03T03:52:04.698Z,23.30
2023-03-03T03:52:25.747Z,23.00
2023-03-03T03:52:46.822Z,23.10
2023-03-03T03:53:07.867Z,23.30
2023-03-03T03:53:28.942Z,24.40
2023-03-03T03:53:50.011Z,24.00
2023-03-03T03:54:11.074Z,24.00
2023-03-03T03:54:32.153Z,23.50
2023-03-03T03:54:53.210Z,23.40
2023-03-03T03:55:14.280Z,23.60
2023-03-03T03:55:35.348Z,24.50
2023-03-03T03:55:56.405Z,23.90
2023-03-03T03:56:17.461Z,24.00
2023-03-03T03:56:38.507Z,24.20
2023-03-03T03:56:59.561Z,24.70
2023-03-03T03:57:20.646Z,23.30
2023-03-03T03:57:41.711Z,23.20
2023-03-03T03:58:02.764Z,23.80
2023-03-03T03:58:23.823Z,24.10
2023-03-03T03:58:44.912Z,24.30
2023-03-03T03:59:06.007Z,24.20
2023-03-03T03:59:27.088Z,24.20
2023-03-03T03:59:48.253Z,25.20
2023-03-03T04:00:09.326Z,24.90
2023-03-03T04:00:30.409Z,25.70
2023-03-03T04:00:51.493Z,23.90
2023-03-03T04:01:12.573Z,25.10
2023-03-03T04:01:33.641Z,25.00
2023-03-03T04:01:54.716Z,24.70
2023-03-03T04:02:15.847Z,24.50
2023-03-03T04:02:36.995Z,23.30
2023-03-03T04:02:58.248Z,24.10
2023-03-03T04:03:19.467Z,23.60
2023-03-03T04:03:40.599Z,24.50
2023-03-03T04:04:01.649Z,24.70
2023-03-03T04:04:22.692Z,25.50
2023-03-03T04:04:43.747Z,25.50
2023-03-03T04:05:04.799Z,24.50
2023-03-03T04:05:25.859Z,25.30
2023-03-03T04:05:46.960Z,25.00
2023-03-03T04:06:08.029Z,25.80
2023-03-03T04:06:29.096Z,24.80
2023-03-03T04:06:50.180Z,25.00
2023-03-03T04:07:11.738Z,25.40
2023-03-03T04:07:32.816Z,26.00
2023-03-03T04:07:53.904Z,25.30
2023-03-03T04:08:14.971Z,23.90
2023-03-03T04:08:36.026Z,24.70
2023-03-03T04:08:57.149Z,25.70
2023-03-03T04:09:18.416Z,25.30
2023-03-03T04:09:39.459Z,24.40
2023-03-03T04:10:00.543Z,24.60
2023-03-03T04:10:21.608Z,24.60
2023-03-03T04:10:42.688Z,24.70
2023-03-03T04:11:03.798Z,25.80
2023-03-03T04:11:24.830Z,26.00
2023-03-03T04:11:45.904Z,25.10
2023-03-03T04:12:07.000Z,25.10
2023-03-03T04:12:28.058Z,25.30
2023-03-03T04:12:49.124Z,25.00
2023-03-03T04:13:10.189Z,24.60
2023-03-03T04:13:31.253Z,26.10
2023-03-03T04:13:52.351Z,24.90
2023-03-03T04:14:13.383Z,26.00
2023-03-03T04:14:34.443Z,24.70
2023-03-03T04:14:55.490Z,24.00
2023-03-03T04:15:16.671Z,25.10
2023-03-03T04:15:37.745Z,26.80
2023-03-03T04:15:58.931Z,24.80
2023-03-03T04:16:20.034Z,25.50
2023-03-03T04:16:41.103Z,26.10
2023-03-03T04:17:02.169Z,25.60
2023-03-03T04:17:23.235Z,25.90
2023-03-03T04:17:44.328Z,26.90
2023-03-03T04:18:05.385Z,27.00
2023-03-03T04:18:26.431Z,24.90
2023-03-03T04:18:47.496Z,26.10
2023-03-03T04:19:08.584Z,26.80
2023-03-03T04:19:29.639Z,26.60
2023-03-03T04:19:50.771Z,25.30
2023-03-03T04:20:11.871Z,25.20
2023-03-03T04:20:32.931Z,26.10
2023-03-03T04:20:53.972Z,26.20
2023-03-03T04:21:15.033Z,26.40
2023-03-03T04:21:36.272Z,26.80
2023-03-03T04:21:57.328Z,26.30
2023-03-03T04:22:18.394Z,26.50
2023-03-03T04:22:39.474Z,25.90
2023-03-03T04:23:00.541Z,25.60
2023-03-03T04:23:21.610Z,25.90
2023-03-03T04:23:42.670Z,26.90
2023-03-03T04:24:03.745Z,27.30
2023-03-03T04:24:24.814Z,26.90
2023-03-03T04:24:45.870Z,26.80
2023-03-03T04:25:06.949Z,26.70
2023-03-03T04:25:28.002Z,26.10
2023-03-03T04:25:49.073Z,26.40
2023-03-03T04:26:10.146Z,27.40
2023-03-03T04:26:31.219Z,27.30
2023-03-03T04:26:52.266Z,28.10
2023-03-03T04:27:13.338Z,27.80
2023-03-03T04:27:34.414Z,27.30
2023-03-03T04:27:55.473Z,26.60
2023-03-03T04:28:16.576Z,26.70
2023-03-03T04:28:37.604Z,27.80
2023-03-03T04:28:58.692Z,28.20
2023-03-03T04:29:19.740Z,26.90
2023-03-03T04:29:40.801Z,26.90
2023-03-03T04:30:01.950Z,28.10
2023-03-03T04:30:22.957Z,27.90
2023-03-03T04:30:44.081Z,28.60
2023-03-03T04:31:05.161Z,28.30
2023-03-03T04:31:26.239Z,27.50